sensor_id;sensor_type;location;lat;lon;timestamp;pressure;altitude;pressure_sealevel;temperature;humidity
51439;BME280;38816;51.142;-0.974;2022-10-16T00:01:50;99191.16;;;9.19;100.00
51439;BME280;38816;51.142;-0.974;2022-10-16T00:04:16;99191.97;;;9.15;100.00
51439;BME280;38816;51.142;-0.974;2022-10-16T00:06:41;99185.97;;;9.12;100.00
51439;BME280;38816;51.142;-0.974;2022-10-16T00:09:07;99193.72;;;9.22;100.00
51439;BME280;38816;51.142;-0.974;2022-10-16T00:11:35;99202.31;;;9.28;100.00
51439;BME280;38816;51.142;-0.974;2022-10-16T00:14:10;99207.50;;;9.45;100.00
51439;BME280;38816;51.142;-0.974;2022-10-16T00:16:36;99220.38;;;9.63;100.00
51439;BME280;38816;51.142;-0.974;2022-10-16T00:19:02;99220.47;;;9.77;100.00
51439;BME280;38816;51.142;-0.974;2022-10-16T00:21:29;99216.16;;;9.81;100.00
51439;BME280;38816;51.142;-0.974;2022-10-16T00:24:04;99218.78;;;9.88;100.00
51439;BME280;38816;51.142;-0.974;2022-10-16T00:26:31;99217.06;;;9.89;100.00
51439;BME280;38816;51.142;-0.974;2022-10-16T00:28:57;99217.06;;;9.83;100.00
51439;BME280;38816;51.142;-0.974;2022-10-16T00:31:23;99222.16;;;9.75;100.00
51439;BME280;38816;51.142;-0.974;2022-10-16T00:33:49;99223.00;;;9.68;100.00
51439;BME280;38816;51.142;-0.974;2022-10-16T00:36:17;99207.53;;;9.53;100.00
51439;BME280;38816;51.142;-0.974;2022-10-16T00:38:43;99220.34;;;9.50;100.00
51439;BME280;38816;51.142;-0.974;2022-10-16T00:41:12;99219.47;;;9.49;100.00
51439;BME280;38816;51.142;-0.974;2022-10-16T00:46:15;99226.38;;;9.59;100.00
51439;BME280;38816;51.142;-0.974;2022-10-16T00:48:47;99206.69;;;9.58;100.00
51439;BME280;38816;51.142;-0.974;2022-10-16T00:51:13;99219.56;;;9.69;100.00
51439;BME280;38816;51.142;-0.974;2022-10-16T00:53:39;99221.28;;;9.75;100.00
51439;BME280;38816;51.142;-0.974;2022-10-16T00:56:05;99199.03;;;9.72;100.00
51439;BME280;38816;51.142;-0.974;2022-10-16T00:58:31;99229.06;;;9.92;100.00
51439;BME280;38816;51.142;-0.974;2022-10-16T01:00:57;99261.59;;;9.96;100.00
51439;BME280;38816;51.142;-0.974;2022-10-16T01:03:33;99268.44;;;10.00;100.00
51439;BME280;38816;51.142;-0.974;2022-10-16T01:06:08;99243.59;;;9.86;100.00
51439;BME280;38816;51.142;-0.974;2022-10-16T01:09:04;99247.03;;;9.96;100.00
51439;BME280;38816;51.142;-0.974;2022-10-16T01:15:01;99252.16;;;9.95;100.00
51439;BME280;38816;51.142;-0.974;2022-10-16T01:17:38;99248.72;;;9.88;100.00
51439;BME280;38816;51.142;-0.974;2022-10-16T01:20:29;99234.97;;;9.75;100.00
51439;BME280;38816;51.142;-0.974;2022-10-16T01:23:41;99250.34;;;9.72;100.00
51439;BME280;38816;51.142;-0.974;2022-10-16T01:31:24;99244.22;;;9.36;100.00
51439;BME280;38816;51.142;-0.974;2022-10-16T01:33:59;99245.88;;;9.25;100.00
51439;BME280;38816;51.142;-0.974;2022-10-16T01:36:31;99238.97;;;9.18;100.00
51439;BME280;38816;51.142;-0.974;2022-10-16T01:39:01;99233.81;;;9.06;100.00
51439;BME280;38816;51.142;-0.974;2022-10-16T01:41:38;99257.72;;;9.06;100.00
51439;BME280;38816;51.142;-0.974;2022-10-16T01:44:09;99264.53;;;9.03;100.00
51439;BME280;38816;51.142;-0.974;2022-10-16T01:46:38;99247.34;;;8.88;100.00
51439;BME280;38816;51.142;-0.974;2022-10-16T01:49:05;99237.84;;;8.75;100.00
51439;BME280;38816;51.142;-0.974;2022-10-16T01:51:32;99261.88;;;8.89;100.00
51439;BME280;38816;51.142;-0.974;2022-10-16T01:54:00;99258.44;;;8.87;100.00
51439;BME280;38816;51.142;-0.974;2022-10-16T01:56:27;99262.63;;;8.74;100.00
51439;BME280;38816;51.142;-0.974;2022-10-16T01:58:58;99266.97;;;8.84;100.00
51439;BME280;38816;51.142;-0.974;2022-10-16T02:01:28;99270.34;;;8.82;100.00
51439;BME280;38816;51.142;-0.974;2022-10-16T02:03:57;99271.25;;;8.85;100.00
51439;BME280;38816;51.142;-0.974;2022-10-16T02:06:24;99262.69;;;8.83;100.00
51439;BME280;38816;51.142;-0.974;2022-10-16T02:08:50;99264.44;;;8.87;100.00
51439;BME280;38816;51.142;-0.974;2022-10-16T02:11:15;99270.34;;;8.79;100.00
51439;BME280;38816;51.142;-0.974;2022-10-16T02:13:46;99278.03;;;8.80;100.00
51439;BME280;38816;51.142;-0.974;2022-10-16T02:16:14;99274.63;;;8.78;100.00
51439;BME280;38816;51.142;-0.974;2022-10-16T02:18:40;99285.75;;;8.83;100.00
51439;BME280;38816;51.142;-0.974;2022-10-16T02:21:25;99289.06;;;8.70;100.00
51439;BME280;38816;51.142;-0.974;2022-10-16T02:26:31;99283.81;;;8.59;100.00
51439;BME280;38816;51.142;-0.974;2022-10-16T02:29:02;99291.59;;;8.67;100.00
51439;BME280;38816;51.142;-0.974;2022-10-16T02:31:32;99283.84;;;8.61;100.00
51439;BME280;38816;51.142;-0.974;2022-10-16T02:34:01;99289.81;;;8.60;100.00
51439;BME280;38816;51.142;-0.974;2022-10-16T02:36:30;99277.03;;;8.63;100.00
51439;BME280;38816;51.142;-0.974;2022-10-16T02:38:57;99279.59;;;8.63;100.00
51439;BME280;38816;51.142;-0.974;2022-10-16T02:41:24;99293.28;;;8.68;100.00
51439;BME280;38816;51.142;-0.974;2022-10-16T02:43:50;99294.16;;;8.69;100.00
51439;BME280;38816;51.142;-0.974;2022-10-16T02:46:16;99296.66;;;8.62;100.00
51439;BME280;38816;51.142;-0.974;2022-10-16T02:48:42;99294.97;;;8.63;100.00
51439;BME280;38816;51.142;-0.974;2022-10-16T02:51:08;99301.75;;;8.58;100.00
51439;BME280;38816;51.142;-0.974;2022-10-16T02:53:33;99294.03;;;8.52;100.00
51439;BME280;38816;51.142;-0.974;2022-10-16T02:55:58;99307.81;;;8.65;100.00
51439;BME280;38816;51.142;-0.974;2022-10-16T02:58:24;99302.66;;;8.61;100.00
51439;BME280;38816;51.142;-0.974;2022-10-16T03:00:49;99301.84;;;8.67;100.00
51439;BME280;38816;51.142;-0.974;2022-10-16T03:03:14;99295.81;;;8.62;100.00
51439;BME280;38816;51.142;-0.974;2022-10-16T03:05:40;99309.47;;;8.64;100.00
51439;BME280;38816;51.142;-0.974;2022-10-16T03:08:05;99309.53;;;8.67;100.00
51439;BME280;38816;51.142;-0.974;2022-10-16T03:10:31;99309.44;;;8.59;100.00
51439;BME280;38816;51.142;-0.974;2022-10-16T03:12:56;99320.59;;;8.63;100.00
51439;BME280;38816;51.142;-0.974;2022-10-16T03:15:21;99327.47;;;8.69;100.00
51439;BME280;38816;51.142;-0.974;2022-10-16T03:17:47;99303.47;;;8.59;100.00
51439;BME280;38816;51.142;-0.974;2022-10-16T03:20:12;99330.06;;;8.70;100.00
51439;BME280;38816;51.142;-0.974;2022-10-16T03:22:38;99336.03;;;8.69;100.00
51439;BME280;38816;51.142;-0.974;2022-10-16T03:25:03;99342.06;;;8.74;100.00
51439;BME280;38816;51.142;-0.974;2022-10-16T03:27:29;99335.19;;;8.73;100.00
51439;BME280;38816;51.142;-0.974;2022-10-16T03:29:54;99336.00;;;8.66;100.00
51439;BME280;38816;51.142;-0.974;2022-10-16T03:32:20;99326.47;;;8.53;100.00
51439;BME280;38816;51.142;-0.974;2022-10-16T03:34:45;99342.75;;;8.58;100.00
51439;BME280;38816;51.142;-0.974;2022-10-16T03:37:11;99345.25;;;8.52;100.00
51439;BME280;38816;51.142;-0.974;2022-10-16T03:39:36;99354.66;;;8.51;100.00
51439;BME280;38816;51.142;-0.974;2022-10-16T03:42:02;99351.97;;;8.42;100.00
51439;BME280;38816;51.142;-0.974;2022-10-16T03:44:27;99348.44;;;8.35;100.00
51439;BME280;38816;51.142;-0.974;2022-10-16T03:46:53;99366.47;;;8.42;100.00
51439;BME280;38816;51.142;-0.974;2022-10-16T03:49:18;99376.72;;;8.42;100.00
51439;BME280;38816;51.142;-0.974;2022-10-16T03:51:43;99377.53;;;8.38;100.00
51439;BME280;38816;51.142;-0.974;2022-10-16T03:54:10;99367.13;;;8.25;100.00
51439;BME280;38816;51.142;-0.974;2022-10-16T03:56:35;99378.31;;;8.35;100.00
51439;BME280;38816;51.142;-0.974;2022-10-16T03:59:00;99371.41;;;8.26;100.00
51439;BME280;38816;51.142;-0.974;2022-10-16T04:01:47;99379.94;;;8.28;100.00
51439;BME280;38816;51.142;-0.974;2022-10-16T04:04:13;99382.50;;;8.28;100.00
51439;BME280;38816;51.142;-0.974;2022-10-16T04:06:38;99380.78;;;8.27;100.00
51439;BME280;38816;51.142;-0.974;2022-10-16T04:09:04;99377.38;;;8.27;100.00
51439;BME280;38816;51.142;-0.974;2022-10-16T04:11:29;99399.66;;;8.34;100.00
51439;BME280;38816;51.142;-0.974;2022-10-16T04:13:55;99393.59;;;8.27;100.00
51439;BME280;38816;51.142;-0.974;2022-10-16T04:16:20;99402.91;;;8.22;100.00
51439;BME280;38816;51.142;-0.974;2022-10-16T04:18:46;99400.34;;;8.22;100.00
51439;BME280;38816;51.142;-0.974;2022-10-16T04:21:11;99402.19;;;8.32;100.00
51439;BME280;38816;51.142;-0.974;2022-10-16T04:23:36;99404.69;;;8.28;100.00
51439;BME280;38816;51.142;-0.974;2022-10-16T04:26:02;99414.06;;;8.24;100.00
51439;BME280;38816;51.142;-0.974;2022-10-16T04:28:28;99417.44;;;8.23;100.00
51439;BME280;38816;51.142;-0.974;2022-10-16T04:30:53;99411.38;;;8.17;100.00
51439;BME280;38816;51.142;-0.974;2022-10-16T04:33:19;99425.91;;;8.16;100.00
51439;BME280;38816;51.142;-0.974;2022-10-16T04:35:44;99430.03;;;8.08;100.00
51439;BME280;38816;51.142;-0.974;2022-10-16T04:38:09;99448.09;;;8.17;100.00
51439;BME280;38816;51.142;-0.974;2022-10-16T04:40:35;99434.28;;;8.06;100.00
51439;BME280;38816;51.142;-0.974;2022-10-16T04:43:04;99446.28;;;8.10;100.00
51439;BME280;38816;51.142;-0.974;2022-10-16T04:45:30;99462.59;;;8.17;100.00
51439;BME280;38816;51.142;-0.974;2022-10-16T04:47:59;99468.63;;;8.20;100.00
51439;BME280;38816;51.142;-0.974;2022-10-16T04:50:25;99464.34;;;8.21;100.00
51439;BME280;38816;51.142;-0.974;2022-10-16T04:52:50;99457.53;;;8.21;100.00
51439;BME280;38816;51.142;-0.974;2022-10-16T04:55:15;99466.06;;;8.22;100.00
51439;BME280;38816;51.142;-0.974;2022-10-16T04:57:41;99472.91;;;8.21;100.00
51439;BME280;38816;51.142;-0.974;2022-10-16T05:00:07;99471.97;;;8.16;100.00
51439;BME280;38816;51.142;-0.974;2022-10-16T05:02:33;99474.47;;;8.11;100.00
51439;BME280;38816;51.142;-0.974;2022-10-16T05:04:58;99464.84;;;7.97;100.00
51439;BME280;38816;51.142;-0.974;2022-10-16T05:07:24;99482.81;;;8.00;100.00
51439;BME280;38816;51.142;-0.974;2022-10-16T05:09:49;99470.81;;;7.94;100.00
51439;BME280;38816;51.142;-0.974;2022-10-16T05:12:15;99463.00;;;7.86;100.00
51439;BME280;38816;51.142;-0.974;2022-10-16T05:14:40;99487.88;;;7.97;100.00
51439;BME280;38816;51.142;-0.974;2022-10-16T05:17:06;99500.59;;;7.91;100.00
51439;BME280;38816;51.142;-0.974;2022-10-16T05:19:31;99494.47;;;7.79;100.00
51439;BME280;38816;51.142;-0.974;2022-10-16T05:21:56;99504.78;;;7.84;100.00
51439;BME280;38816;51.142;-0.974;2022-10-16T05:24:22;99497.84;;;7.77;100.00
51439;BME280;38816;51.142;-0.974;2022-10-16T05:26:48;99516.72;;;7.85;100.00
51439;BME280;38816;51.142;-0.974;2022-10-16T05:29:13;99519.16;;;7.77;100.00
51439;BME280;38816;51.142;-0.974;2022-10-16T05:31:39;99531.94;;;7.77;100.00
51439;BME280;38816;51.142;-0.974;2022-10-16T05:34:04;99535.28;;;7.72;100.00
51439;BME280;38816;51.142;-0.974;2022-10-16T05:36:29;99537.75;;;7.67;100.00
51439;BME280;38816;51.142;-0.974;2022-10-16T05:38:55;99539.53;;;7.71;100.00
51439;BME280;38816;51.142;-0.974;2022-10-16T05:41:20;99542.06;;;7.70;100.00
51439;BME280;38816;51.142;-0.974;2022-10-16T05:43:49;99560.03;;;7.74;100.00
51439;BME280;38816;51.142;-0.974;2022-10-16T05:46:15;99549.66;;;7.65;100.00
51439;BME280;38816;51.142;-0.974;2022-10-16T05:48:41;99556.53;;;7.68;100.00
51439;BME280;38816;51.142;-0.974;2022-10-16T05:51:09;99569.22;;;7.61;100.00
51439;BME280;38816;51.142;-0.974;2022-10-16T05:53:37;99545.00;;;7.43;100.00
51439;BME280;38816;51.142;-0.974;2022-10-16T05:56:03;99566.28;;;7.42;100.00
51439;BME280;38816;51.142;-0.974;2022-10-16T05:58:32;99557.50;;;7.27;100.00
51439;BME280;38816;51.142;-0.974;2022-10-16T06:01:04;99575.34;;;7.24;100.00
51439;BME280;38816;51.142;-0.974;2022-10-16T06:03:30;99582.03;;;7.16;100.00
51439;BME280;38816;51.142;-0.974;2022-10-16T06:05:55;99565.44;;;6.96;100.00
51439;BME280;38816;51.142;-0.974;2022-10-16T06:08:22;99584.19;;;6.98;100.00
51439;BME280;38816;51.142;-0.974;2022-10-16T06:10:48;99594.28;;;6.90;100.00
51439;BME280;38816;51.142;-0.974;2022-10-16T06:13:14;99587.34;;;6.84;100.00
51439;BME280;38816;51.142;-0.974;2022-10-16T06:15:41;99590.72;;;6.83;100.00
51439;BME280;38816;51.142;-0.974;2022-10-16T06:18:10;99589.00;;;6.82;100.00
51439;BME280;38816;51.142;-0.974;2022-10-16T06:20:36;99598.34;;;6.82;100.00
51439;BME280;38816;51.142;-0.974;2022-10-16T06:23:02;99602.59;;;6.81;100.00
51439;BME280;38816;51.142;-0.974;2022-10-16T06:25:29;99589.66;;;6.72;100.00
51439;BME280;38816;51.142;-0.974;2022-10-16T06:27:55;99590.50;;;6.73;100.00
51439;BME280;38816;51.142;-0.974;2022-10-16T06:30:20;99587.00;;;6.69;100.00
51439;BME280;38816;51.142;-0.974;2022-10-16T06:32:46;99584.38;;;6.66;100.00
51439;BME280;38816;51.142;-0.974;2022-10-16T06:35:11;99605.81;;;6.71;100.00
51439;BME280;38816;51.142;-0.974;2022-10-16T06:37:36;99602.34;;;6.69;100.00
51439;BME280;38816;51.142;-0.974;2022-10-16T06:40:02;99595.38;;;6.62;100.00
51439;BME280;38816;51.142;-0.974;2022-10-16T06:42:29;99602.16;;;6.62;100.00
51439;BME280;38816;51.142;-0.974;2022-10-16T06:44:55;99616.78;;;6.67;100.00
51439;BME280;38816;51.142;-0.974;2022-10-16T06:47:20;99621.78;;;6.63;100.00
51439;BME280;38816;51.142;-0.974;2022-10-16T06:49:45;99626.81;;;6.59;100.00
51439;BME280;38816;51.142;-0.974;2022-10-16T06:52:11;99618.94;;;6.49;100.00
51439;BME280;38816;51.142;-0.974;2022-10-16T06:54:36;99627.50;;;6.52;100.00
51439;BME280;38816;51.142;-0.974;2022-10-16T06:57:02;99628.25;;;6.48;100.00
51439;BME280;38816;51.142;-0.974;2022-10-16T06:59:27;99644.47;;;6.50;100.00
51439;BME280;38816;51.142;-0.974;2022-10-16T07:01:53;99642.72;;;6.48;100.00
51439;BME280;38816;51.142;-0.974;2022-10-16T07:04:18;99634.81;;;6.37;100.00
51439;BME280;38816;51.142;-0.974;2022-10-16T07:06:43;99650.16;;;6.39;100.00
51439;BME280;38816;51.142;-0.974;2022-10-16T07:09:10;99645.66;;;6.28;100.00
51439;BME280;38816;51.142;-0.974;2022-10-16T07:11:38;99661.94;;;6.33;100.00
51439;BME280;38816;51.142;-0.974;2022-10-16T07:14:03;99657.78;;;6.37;100.00
51439;BME280;38816;51.142;-0.974;2022-10-16T07:16:30;99643.19;;;6.31;100.00
51439;BME280;38816;51.142;-0.974;2022-10-16T07:19:00;99662.13;;;6.40;100.00
51439;BME280;38816;51.142;-0.974;2022-10-16T07:21:28;99669.81;;;6.43;100.00
51439;BME280;38816;51.142;-0.974;2022-10-16T07:23:58;99659.50;;;6.38;100.00
51439;BME280;38816;51.142;-0.974;2022-10-16T07:26:26;99667.25;;;6.41;100.00
51439;BME280;38816;51.142;-0.974;2022-10-16T07:28:52;99669.91;;;6.46;100.00
51439;BME280;38816;51.142;-0.974;2022-10-16T07:31:19;99688.84;;;6.54;100.00
51439;BME280;38816;51.142;-0.974;2022-10-16T07:33:46;99680.25;;;6.52;100.00
51439;BME280;38816;51.142;-0.974;2022-10-16T07:36:14;99687.31;;;6.62;100.00
51439;BME280;38816;51.142;-0.974;2022-10-16T07:38:39;99666.69;;;6.53;100.00
51439;BME280;38816;51.142;-0.974;2022-10-16T07:41:06;99682.31;;;6.67;100.00
51439;BME280;38816;51.142;-0.974;2022-10-16T07:43:33;99687.53;;;6.71;100.00
51439;BME280;38816;51.142;-0.974;2022-10-16T07:45:59;99707.44;;;6.86;100.00
51439;BME280;38816;51.142;-0.974;2022-10-16T07:48:28;99704.25;;;6.96;100.00
51439;BME280;38816;51.142;-0.974;2022-10-16T07:50:57;99704.47;;;7.05;100.00
51439;BME280;38816;51.142;-0.974;2022-10-16T07:53:23;99711.56;;;7.19;100.00
51439;BME280;38816;51.142;-0.974;2022-10-16T07:55:48;99693.78;;;7.25;100.00
51439;BME280;38816;51.142;-0.974;2022-10-16T07:58:13;99697.44;;;7.34;100.00
51439;BME280;38816;51.142;-0.974;2022-10-16T08:00:39;99714.78;;;7.51;100.00
51439;BME280;38816;51.142;-0.974;2022-10-16T08:03:04;99700.38;;;7.54;100.00
51439;BME280;38816;51.142;-0.974;2022-10-16T08:05:31;99708.25;;;7.65;100.00
51439;BME280;38816;51.142;-0.974;2022-10-16T08:07:57;99718.81;;;7.82;100.00
51439;BME280;38816;51.142;-0.974;2022-10-16T08:10:24;99712.84;;;7.83;100.00
51439;BME280;38816;51.142;-0.974;2022-10-16T08:12:51;99727.66;;;7.98;100.00
51439;BME280;38816;51.142;-0.974;2022-10-16T08:15:17;99725.13;;;8.01;100.00
51439;BME280;38816;51.142;-0.974;2022-10-16T08:17:43;99729.47;;;8.05;100.00
51439;BME280;38816;51.142;-0.974;2022-10-16T08:20:09;99723.50;;;8.04;100.00
51439;BME280;38816;51.142;-0.974;2022-10-16T08:22:35;99725.41;;;8.16;100.00
51439;BME280;38816;51.142;-0.974;2022-10-16T08:25:00;99737.69;;;8.34;100.00
51439;BME280;38816;51.142;-0.974;2022-10-16T08:27:31;99725.25;;;8.55;100.00
51439;BME280;38816;51.142;-0.974;2022-10-16T08:29:56;99729.19;;;8.90;100.00
51439;BME280;38816;51.142;-0.974;2022-10-16T08:32:22;99736.53;;;9.24;100.00
51439;BME280;38816;51.142;-0.974;2022-10-16T08:34:47;99742.91;;;9.54;100.00
51439;BME280;38816;51.142;-0.974;2022-10-16T08:37:13;99745.75;;;9.77;100.00
51439;BME280;38816;51.142;-0.974;2022-10-16T08:39:38;99741.66;;;9.91;100.00
51439;BME280;38816;51.142;-0.974;2022-10-16T08:42:18;99757.19;;;10.05;100.00
51439;BME280;38816;51.142;-0.974;2022-10-16T08:50:09;99763.91;;;9.94;100.00
51439;BME280;38816;51.142;-0.974;2022-10-16T08:52:40;99754.50;;;9.94;100.00
51439;BME280;38816;51.142;-0.974;2022-10-16T08:55:21;99769.19;;;10.04;100.00
51439;BME280;38816;51.142;-0.974;2022-10-16T08:57:49;99773.41;;;10.01;100.00
51439;BME280;38816;51.142;-0.974;2022-10-16T09:00:15;99775.03;;;9.93;100.00
51439;BME280;38816;51.142;-0.974;2022-10-16T09:02:57;99766.38;;;9.83;100.00
51439;BME280;38816;51.142;-0.974;2022-10-16T09:05:57;99774.91;;;9.82;100.00
51439;BME280;38816;51.142;-0.974;2022-10-16T09:08:46;99783.44;;;9.79;100.00
51439;BME280;38816;51.142;-0.974;2022-10-16T09:17:00;99778.19;;;9.70;100.00
51439;BME280;38816;51.142;-0.974;2022-10-16T09:22:27;99774.81;;;9.76;100.00
51439;BME280;38816;51.142;-0.974;2022-10-16T09:24:55;99774.81;;;9.74;100.00
51439;BME280;38816;51.142;-0.974;2022-10-16T09:27:25;99770.50;;;9.72;100.00
51439;BME280;38816;51.142;-0.974;2022-10-16T09:29:51;99788.63;;;9.84;100.00
51439;BME280;38816;51.142;-0.974;2022-10-16T09:32:19;99772.25;;;9.74;100.00
51439;BME280;38816;51.142;-0.974;2022-10-16T09:34:48;99792.06;;;9.86;100.00
51439;BME280;38816;51.142;-0.974;2022-10-16T09:37:18;99792.84;;;9.77;100.00
51439;BME280;38816;51.142;-0.974;2022-10-16T09:42:15;99779.16;;;9.80;100.00
51439;BME280;38816;51.142;-0.974;2022-10-16T09:44:41;99778.25;;;9.76;100.00
51439;BME280;38816;51.142;-0.974;2022-10-16T09:47:16;99780.91;;;9.84;100.00
51439;BME280;38816;51.142;-0.974;2022-10-16T09:49:53;99797.28;;;9.94;100.00
51439;BME280;38816;51.142;-0.974;2022-10-16T09:52:20;99789.53;;;9.90;100.00
51439;BME280;38816;51.142;-0.974;2022-10-16T09:55:09;99801.69;;;10.04;100.00
51439;BME280;38816;51.142;-0.974;2022-10-16T09:57:37;99801.72;;;10.08;100.00
51439;BME280;38816;51.142;-0.974;2022-10-16T10:00:16;99800.91;;;10.11;100.00
51439;BME280;38816;51.142;-0.974;2022-10-16T10:02:42;99807.88;;;10.20;100.00
51439;BME280;38816;51.142;-0.974;2022-10-16T10:05:22;99799.25;;;10.14;100.00
51439;BME280;38816;51.142;-0.974;2022-10-16T10:07:55;99808.00;;;10.27;100.00
51439;BME280;38816;51.142;-0.974;2022-10-16T10:10:30;99810.66;;;10.38;100.00
51439;BME280;38816;51.142;-0.974;2022-10-16T10:12:56;99808.19;;;10.46;100.00
51439;BME280;38816;51.142;-0.974;2022-10-16T10:15:22;99801.31;;;10.46;100.00
51439;BME280;38816;51.142;-0.974;2022-10-16T10:17:50;99816.13;;;10.72;100.00
51439;BME280;38816;51.142;-0.974;2022-10-16T10:20:26;99810.25;;;10.89;100.00
51439;BME280;38816;51.142;-0.974;2022-10-16T10:22:53;99796.66;;;11.01;100.00
51439;BME280;38816;51.142;-0.974;2022-10-16T10:25:38;99815.66;;;11.22;100.00
51439;BME280;38816;51.142;-0.974;2022-10-16T10:34:11;99806.41;;;11.51;100.00
51439;BME280;38816;51.142;-0.974;2022-10-16T10:36:43;99798.69;;;11.56;100.00
51439;BME280;38816;51.142;-0.974;2022-10-16T10:39:58;99809.09;;;11.71;100.00
51439;BME280;38816;51.142;-0.974;2022-10-16T10:42:37;99783.34;;;11.71;100.00
51439;BME280;38816;51.142;-0.974;2022-10-16T10:51:26;99798.91;;;11.89;100.00
51439;BME280;38816;51.142;-0.974;2022-10-16T10:54:13;99791.16;;;11.85;100.00
51439;BME280;38816;51.142;-0.974;2022-10-16T11:02:41;99792.91;;;11.89;100.00
51439;BME280;38816;51.142;-0.974;2022-10-16T11:05:43;99802.34;;;11.96;100.00
51439;BME280;38816;51.142;-0.974;2022-10-16T11:08:19;99797.19;;;11.98;100.00
51439;BME280;38816;51.142;-0.974;2022-10-16T11:10:54;99790.34;;;11.94;100.00
51439;BME280;38816;51.142;-0.974;2022-10-16T11:15:50;99780.88;;;11.96;100.00
51439;BME280;38816;51.142;-0.974;2022-10-16T11:18:27;99780.06;;;11.98;100.00
51439;BME280;38816;51.142;-0.974;2022-10-16T11:21:00;99783.50;;;12.08;100.00
51439;BME280;38816;51.142;-0.974;2022-10-16T11:23:32;99774.91;;;12.09;100.00
51439;BME280;38816;51.142;-0.974;2022-10-16T11:26:04;99787.81;;;12.20;100.00
51439;BME280;38816;51.142;-0.974;2022-10-16T11:28:37;99770.66;;;12.19;100.00
51439;BME280;38816;51.142;-0.974;2022-10-16T11:31:16;99769.81;;;12.27;100.00
51439;BME280;38816;51.142;-0.974;2022-10-16T11:33:51;99778.41;;;12.41;100.00
51439;BME280;38816;51.142;-0.974;2022-10-16T11:39:02;99781.88;;;12.63;100.00
51439;BME280;38816;51.142;-0.974;2022-10-16T11:44:42;99775.00;;;12.87;100.00
51439;BME280;38816;51.142;-0.974;2022-10-16T11:50:02;99781.00;;;13.27;100.00
51439;BME280;38816;51.142;-0.974;2022-10-16T11:55:31;99774.91;;;13.62;100.00
51439;BME280;38816;51.142;-0.974;2022-10-16T11:58:03;99790.31;;;13.77;100.00
51439;BME280;38816;51.142;-0.974;2022-10-16T12:03:38;99779.94;;;13.86;100.00
51439;BME280;38816;51.142;-0.974;2022-10-16T12:09:04;99761.06;;;13.80;100.00
51439;BME280;38816;51.142;-0.974;2022-10-16T12:11:38;99767.03;;;13.86;100.00
51439;BME280;38816;51.142;-0.974;2022-10-16T12:16:38;99760.09;;;13.94;100.00
51439;BME280;38816;51.142;-0.974;2022-10-16T12:19:15;99741.16;;;13.96;100.00
51439;BME280;38816;51.142;-0.974;2022-10-16T12:21:42;99748.03;;;14.00;100.00
51439;BME280;38816;51.142;-0.974;2022-10-16T12:24:21;99759.16;;;14.14;100.00
51439;BME280;38816;51.142;-0.974;2022-10-16T12:26:48;99745.38;;;14.15;100.00
51439;BME280;38816;51.142;-0.974;2022-10-16T12:29:43;99753.88;;;14.29;100.00
51439;BME280;38816;51.142;-0.974;2022-10-16T12:32:34;99747.78;;;14.39;100.00
51439;BME280;38816;51.142;-0.974;2022-10-16T12:35:01;99733.84;;;14.59;100.00
51439;BME280;38816;51.142;-0.974;2022-10-16T12:39:56;99723.19;;;14.94;100.00
51439;BME280;38816;51.142;-0.974;2022-10-16T12:44:52;99731.56;;;15.20;100.00
51439;BME280;38816;51.142;-0.974;2022-10-16T12:47:37;99742.53;;;15.44;100.00
51439;BME280;38816;51.142;-0.974;2022-10-16T12:50:03;99735.56;;;15.51;100.00
51439;BME280;38816;51.142;-0.974;2022-10-16T12:52:48;99721.72;;;15.52;100.00
51439;BME280;38816;51.142;-0.974;2022-10-16T12:55:17;99740.59;;;15.61;100.00
51439;BME280;38816;51.142;-0.974;2022-10-16T13:00:26;99746.75;;;15.54;100.00
51439;BME280;38816;51.142;-0.974;2022-10-16T13:03:32;99751.03;;;15.55;100.00
51439;BME280;38816;51.142;-0.974;2022-10-16T13:06:13;99747.63;;;15.52;100.00
51439;BME280;38816;51.142;-0.974;2022-10-16T13:09:02;99753.66;;;15.52;100.00
51439;BME280;38816;51.142;-0.974;2022-10-16T13:20:51;99746.75;;;15.53;100.00
51439;BME280;38816;51.142;-0.974;2022-10-16T13:25:57;99741.78;;;15.36;100.00
51439;BME280;38816;51.142;-0.974;2022-10-16T13:28:31;99733.13;;;15.37;100.00
51439;BME280;38816;51.142;-0.974;2022-10-16T13:30:59;99744.38;;;15.34;100.00
51439;BME280;38816;51.142;-0.974;2022-10-16T13:33:33;99734.09;;;15.28;100.00
51439;BME280;38816;51.142;-0.974;2022-10-16T13:36:00;99724.75;;;15.12;100.00
51439;BME280;38816;51.142;-0.974;2022-10-16T13:38:29;99722.16;;;15.12;100.00
51439;BME280;38816;51.142;-0.974;2022-10-16T13:41:00;99723.88;;;15.13;100.00
51439;BME280;38816;51.142;-0.974;2022-10-16T13:46:03;99719.66;;;15.03;100.00
51439;BME280;38816;51.142;-0.974;2022-10-16T13:48:29;99715.38;;;15.02;100.00
51439;BME280;38816;51.142;-0.974;2022-10-16T13:51:06;99726.56;;;15.04;99.68
51439;BME280;38816;51.142;-0.974;2022-10-16T13:53:35;99737.78;;;15.04;100.00
51439;BME280;38816;51.142;-0.974;2022-10-16T13:56:06;99708.53;;;14.94;99.90
51439;BME280;38816;51.142;-0.974;2022-10-16T13:58:32;99721.44;;;15.01;99.78
51439;BME280;38816;51.142;-0.974;2022-10-16T14:01:00;99723.16;;;15.00;99.07
51439;BME280;38816;51.142;-0.974;2022-10-16T14:03:27;99725.69;;;15.05;99.45
51439;BME280;38816;51.142;-0.974;2022-10-16T14:05:55;99724.03;;;14.98;99.32
51439;BME280;38816;51.142;-0.974;2022-10-16T14:08:23;99718.88;;;14.96;99.51
51439;BME280;38816;51.142;-0.974;2022-10-16T14:10:51;99726.56;;;15.04;99.72
51439;BME280;38816;51.142;-0.974;2022-10-16T14:13:20;99730.03;;;15.04;99.45
51439;BME280;38816;51.142;-0.974;2022-10-16T14:15:50;99722.22;;;15.06;99.37
51439;BME280;38816;51.142;-0.974;2022-10-16T14:18:20;99719.63;;;15.09;99.64
51439;BME280;38816;51.142;-0.974;2022-10-16T14:20:47;99710.16;;;15.03;98.80
51439;BME280;38816;51.142;-0.974;2022-10-16T14:23:32;99705.09;;;14.96;98.28
51439;BME280;38816;51.142;-0.974;2022-10-16T14:28:34;99729.19;;;14.99;98.42
51439;BME280;38816;51.142;-0.974;2022-10-16T14:31:01;99736.16;;;14.92;98.83
51439;BME280;38816;51.142;-0.974;2022-10-16T14:38:36;99718.25;;;14.69;100.00
51439;BME280;38816;51.142;-0.974;2022-10-16T14:41:03;99714.84;;;14.63;100.00